Terminal Aerodrome Forecast
Issued by NWS

Home | Current Version | Previous Version | Text Only | Print | Product List | Glossary On
Versions: 1 2 3 4 5 6 7 8 9 10 11 12 13 14
000
FTUS44 KMAF 061725
TAFPEQ
TAF
KPEQ 061725Z 0618/0718 23010G18KT P6SM SCT090 BKN130 BKN250
     FM070000 12019G27KT P6SM SCT080 BKN130 PROB30 0703/0706 TSRA
      BKN060CB
     FM070700 33015KT P6SM SCT080 BKN130 BKN250 PROB30 0707/0712
      TSRA BKN070CB=

USA.gov is the U.S. government's official web portal to all federal, state and local government web resources and services.